Time;durP1;ratioP1;P1;durP2;ratioP2;P2;SDS_P1;SDS_P2;PMS_P1;PMS_P2;Temp;Humidity;BMP_temperature;BMP_pressure;BME280_temperature;BME280_humidity;BME280_pressure;Samples;Min_cycle;Max_cycle;Signal;HPM_P1;HPM_P2
2023/06/04 00:00:43;;;;;;;9.18;5.13;;;17.20;76.10;;;;;;4908701;29;20074;-73
2023/06/04 05:01:56;;;;;;;11.00;6.90;;;14.90;77.50;;;;;;5591204;23;20053;-74
2023/06/04 05:04:22;;;;;;;7.35;3.75;;;15.00;77.80;;;;;;4891547;29;20255;-73
2023/06/04 05:06:48;;;;;;;5.88;2.53;;;15.10;78.00;;;;;;4907253;29;20032;-72
2023/06/04 05:09:13;;;;;;;3.72;2.17;;;15.10;76.90;;;;;;4891779;29;20032;-72
2023/06/04 05:11:40;;;;;;;7.03;3.22;;;15.10;77.50;;;;;;4891548;29;20244;-73
2023/06/04 05:14:06;;;;;;;4.97;2.65;;;15.10;77.80;;;;;;4908164;29;20032;-73
2023/06/04 05:16:35;;;;;;;4.07;2.20;;;15.20;77.30;;;;;;4891352;29;20108;-73
2023/06/04 05:19:01;;;;;;;5.03;2.88;;;15.30;77.00;;;;;;4887204;29;20052;-72
2023/06/04 05:21:31;;;;;;;7.15;3.70;;;15.40;76.30;;;;;;4888226;29;20055;-72
2023/06/04 05:24:02;;;;;;;5.38;3.45;;;15.40;76.60;;;;;;4887541;29;20041;-72
2023/06/04 05:26:33;;;;;;;6.97;3.05;;;15.60;76.00;;;;;;4872695;29;20037;-72
2023/06/04 05:29:04;;;;;;;8.13;3.50;;;15.70;75.20;;;;;;4887366;29;20067;-74
2023/06/04 05:31:33;;;;;;;5.20;2.58;;;15.80;74.80;;;;;;4872467;29;20039;-71
2023/06/04 05:34:01;;;;;;;6.25;2.42;;;15.90;72.80;;;;;;4872042;29;20048;-72
2023/06/04 05:36:30;;;;;;;6.07;3.13;;;16.00;71.60;;;;;;4887948;29;20378;-72
2023/06/04 05:38:59;;;;;;;6.70;1.88;;;16.20;71.50;;;;;;4871932;29;20349;-73
2023/06/04 05:41:31;;;;;;;4.63;1.90;;;16.20;70.10;;;;;;4872662;29;20067;-72
2023/06/04 05:43:58;;;;;;;2.80;1.52;;;16.20;70.60;;;;;;4871827;29;20029;-74
2023/06/04 05:46:23;;;;;;;4.00;1.80;;;16.20;70.60;;;;;;4872404;29;20046;-73
2023/06/04 05:48:50;;;;;;;5.45;1.92;;;16.10;70.00;;;;;;4871915;29;20383;-73
2023/06/04 05:51:17;;;;;;;3.30;1.80;;;16.20;70.90;;;;;;4872449;29;20345;-73
2023/06/04 05:53:44;;;;;;;3.42;2.08;;;16.20;71.40;;;;;;4871146;29;20048;-73
2023/06/04 05:56:10;;;;;;;4.78;2.03;;;16.20;70.40;;;;;;4888948;29;20025;-73
2023/06/04 05:58:36;;;;;;;3.40;1.70;;;16.30;70.80;;;;;;4888867;29;20044;-74
2023/06/04 06:01:03;;;;;;;4.55;1.77;;;16.40;70.40;;;;;;4872452;29;20538;-72
2023/06/04 06:03:29;;;;;;;5.03;1.60;;;16.50;70.90;;;;;;4907552;29;20067;-73
2023/06/04 06:05:58;;;;;;;3.85;1.90;;;16.60;69.80;;;;;;4890114;29;20033;-72
2023/06/04 06:08:24;;;;;;;4.10;1.70;;;16.70;69.70;;;;;;4907290;29;20340;-73
2023/06/04 06:10:50;;;;;;;3.65;1.65;;;16.90;69.00;;;;;;4890238;29;20036;-74
2023/06/04 06:13:16;;;;;;;4.60;1.80;;;17.00;68.30;;;;;;4890732;29;20031;-73
2023/06/04 06:15:42;;;;;;;4.20;1.70;;;17.00;68.00;;;;;;4890740;29;20037;-72
2023/06/04 06:18:07;;;;;;;3.63;1.60;;;17.10;67.60;;;;;;4889969;29;20048;-73
2023/06/04 06:20:33;;;;;;;3.63;1.52;;;17.20;66.60;;;;;;4890765;29;20063;-72
2023/06/04 06:23:06;;;;;;;5.18;1.45;;;17.20;66.50;;;;;;4890037;29;20345;-74
2023/06/04 06:25:32;;;;;;;4.97;2.20;;;17.20;66.60;;;;;;4890629;29;20299;-74
2023/06/04 06:28:03;;;;;;;4.88;2.13;;;17.30;66.60;;;;;;4890094;29;20028;-73
2023/06/04 06:30:29;;;;;;;4.30;1.88;;;17.40;66.90;;;;;;4906150;29;20043;-73
2023/06/04 06:32:56;;;;;;;4.15;1.30;;;17.50;66.50;;;;;;4906493;29;20021;-73
2023/06/04 06:35:21;;;;;;;3.45;1.42;;;17.50;66.40;;;;;;4904603;29;20025;-74
2023/06/04 06:37:47;;;;;;;7.00;2.80;;;17.50;66.50;;;;;;4888031;29;20326;-74
2023/06/04 06:40:13;;;;;;;4.88;2.50;;;17.60;66.90;;;;;;4888140;29;20037;-73
2023/06/04 06:42:38;;;;;;;4.22;1.40;;;17.70;66.60;;;;;;4888566;29;20041;-74
2023/06/04 06:45:05;;;;;;;4.45;1.40;;;17.80;66.20;;;;;;4887892;29;20032;-73
2023/06/04 06:47:31;;;;;;;6.00;1.80;;;17.80;66.80;;;;;;4888568;29;20041;-72
2023/06/04 06:49:56;;;;;;;3.70;1.60;;;17.90;66.70;;;;;;4887710;29;20044;-73
2023/06/04 06:52:22;;;;;;;6.15;1.63;;;17.90;66.20;;;;;;4888168;29;20028;-74
2023/06/04 06:54:48;;;;;;;4.10;1.50;;;18.00;66.90;;;;;;4887605;29;20025;-73
2023/06/04 06:57:13;;;;;;;3.85;1.95;;;18.10;67.10;;;;;;4888311;29;20337;-74
2023/06/04 06:59:39;;;;;;;3.75;1.60;;;18.20;67.00;;;;;;4887823;29;20048;-73
2023/06/04 07:02:06;;;;;;;4.03;1.73;;;18.30;66.70;;;;;;4895208;29;20048;-74
2023/06/04 07:04:31;;;;;;;3.63;1.75;;;18.40;65.90;;;;;;4909006;29;20036;-73
2023/06/04 07:06:57;;;;;;;3.85;1.58;;;18.40;65.60;;;;;;4909851;29;20059;-73
2023/06/04 07:09:23;;;;;;;4.85;1.65;;;18.40;65.80;;;;;;4910442;29;20032;-74
2023/06/04 07:11:48;;;;;;;5.13;1.60;;;18.70;65.70;;;;;;4909639;29;20032;-73
2023/06/04 07:14:14;;;;;;;4.40;1.92;;;18.90;65.50;;;;;;4910093;29;20039;-74
2023/06/04 07:16:40;;;;;;;4.15;1.60;;;19.20;64.90;;;;;;4910082;29;20033;-74
2023/06/04 07:19:06;;;;;;;3.40;1.60;;;19.40;64.20;;;;;;4909407;29;20088;-73
2023/06/04 07:21:31;;;;;;;5.50;1.55;;;19.60;63.50;;;;;;4909746;29;20040;-74
2023/06/04 07:23:57;;;;;;;4.72;2.28;;;19.80;63.20;;;;;;4909568;29;20100;-73
2023/06/04 07:26:25;;;;;;;4.90;1.77;;;20.10;63.30;;;;;;4892813;29;20042;-74
2023/06/04 07:28:50;;;;;;;3.20;1.65;;;20.30;62.40;;;;;;4909019;29;20099;-74
2023/06/04 07:31:17;;;;;;;3.22;1.60;;;20.30;62.90;;;;;;4910015;29;20044;-73
2023/06/04 07:33:43;;;;;;;3.60;1.70;;;20.60;62.50;;;;;;4909629;29;20032;-73
2023/06/04 07:36:16;;;;;;;5.25;1.70;;;20.70;61.50;;;;;;4892631;29;20377;-74
2023/06/04 07:38:42;;;;;;;3.95;1.73;;;20.70;61.30;;;;;;4909848;29;20107;-75
2023/06/04 07:41:08;;;;;;;5.20;1.98;;;20.80;61.20;;;;;;4909123;29;20029;-73
2023/06/04 07:43:35;;;;;;;4.85;1.33;;;20.70;61.20;;;;;;4909618;29;20044;-74
2023/06/04 07:46:04;;;;;;;5.07;1.67;;;21.00;62.00;;;;;;4908691;29;20039;-74
2023/06/04 07:48:32;;;;;;;4.18;1.67;;;21.10;61.20;;;;;;4909476;29;20040;-74
2023/06/04 07:50:59;;;;;;;;;;;21.20;60.80;;;;;;4909461;29;20029;-74
2023/06/04 07:53:25;;;;;;;3.10;1.75;;;21.30;61.10;;;;;;4909460;29;19943;-74
2023/06/04 07:55:51;;;;;;;5.40;1.58;;;21.50;61.00;;;;;;4908760;29;20067;-76
2023/06/04 07:58:17;;;;;;;5.35;1.30;;;21.40;60.40;;;;;;4909404;29;20040;-74
2023/06/04 08:00:43;;;;;;;4.85;1.60;;;21.30;61.10;;;;;;4909127;29;20121;-74
2023/06/04 08:03:10;;;;;;;4.03;1.60;;;21.40;61.70;;;;;;4908240;29;20057;-74
2023/06/04 08:05:36;;;;;;;4.05;2.03;;;21.50;61.30;;;;;;4909191;29;20037;-74
2023/06/04 08:08:03;;;;;;;4.68;2.40;;;21.60;61.10;;;;;;4891988;29;20234;-74
2023/06/04 08:10:29;;;;;;;3.55;1.85;;;21.40;61.10;;;;;;4909069;29;20055;-73
2023/06/04 08:12:55;;;;;;;6.68;2.97;;;21.40;61.50;;;;;;4908328;29;20282;-73
2023/06/04 08:15:21;;;;;;;4.50;2.97;;;21.40;61.50;;;;;;4908333;29;20083;-72
2023/06/04 08:17:47;;;;;;;4.35;2.50;;;21.10;62.30;;;;;;4868432;29;20057;-75
2023/06/04 08:20:12;;;;;;;5.47;2.55;;;21.10;62.60;;;;;;4889669;29;20045;-73
2023/06/04 08:22:38;;;;;;;7.45;4.72;;;21.10;61.80;;;;;;4890275;29;20029;-76
2023/06/04 08:25:04;;;;;;;4.70;2.03;;;21.20;62.00;;;;;;4889828;29;20214;-72
2023/06/04 08:27:30;;;;;;;4.57;1.92;;;21.40;62.20;;;;;;4890079;29;20045;-73
2023/06/04 08:29:57;;;;;;;3.40;1.67;;;21.60;61.10;;;;;;4889424;29;20032;-76
2023/06/04 08:32:23;;;;;;;4.22;1.90;;;21.70;61.10;;;;;;4889795;29;20354;-74
2023/06/04 08:34:50;;;;;;;5.43;1.98;;;21.80;61.20;;;;;;4889712;29;20077;-73
2023/06/04 08:37:17;;;;;;;3.28;1.75;;;21.90;60.20;;;;;;4889187;29;20060;-72
2023/06/04 08:39:43;;;;;;;6.45;1.90;;;22.00;60.50;;;;;;4889773;29;20041;-74
2023/06/04 08:42:32;;;;;;;4.63;1.70;;;22.10;60.60;;;;;;4889445;29;20052;-73
2023/06/04 08:44:58;;;;;;;4.05;1.73;;;22.30;60.50;;;;;;4888449;29;20048;-72
2023/06/04 08:47:29;;;;;;;7.63;1.80;;;22.30;60.70;;;;;;4890112;29;20314;-73
2023/06/04 08:50:00;;;;;;;4.13;1.67;;;22.40;61.10;;;;;;4889119;29;20060;-72
2023/06/04 08:52:26;;;;;;;3.13;1.63;;;22.50;61.20;;;;;;4889680;29;20044;-72
2023/06/04 08:54:54;;;;;;;4.60;2.00;;;22.50;60.80;;;;;;4889877;29;20037;-73
2023/06/04 08:57:20;;;;;;;4.32;2.03;;;22.60;60.30;;;;;;4890034;29;20112;-74
2023/06/04 08:59:47;;;;;;;4.53;1.80;;;22.70;61.00;;;;;;4889332;29;20315;-72
2023/06/04 09:02:16;;;;;;;4.05;2.25;;;22.90;60.70;;;;;;4888600;29;20064;-75
2023/06/04 09:04:46;;;;;;;5.07;2.00;;;22.80;60.50;;;;;;4889554;29;20037;-75
2023/06/04 09:07:13;;;;;;;3.50;1.88;;;22.80;60.50;;;;;;4887739;29;20326;-76
2023/06/04 09:09:42;;;;;;;4.33;2.20;;;22.80;59.60;;;;;;4889343;29;20283;-73
2023/06/04 09:12:17;;;;;;;2.95;1.90;;;22.90;60.00;;;;;;4888907;29;20029;-75
2023/06/04 09:14:43;;;;;;;4.97;1.80;;;22.90;59.60;;;;;;4889637;29;20081;-74
2023/06/04 09:17:08;;;;;;;2.92;1.85;;;23.00;59.80;;;;;;4888503;29;20033;-72
2023/06/04 09:19:34;;;;;;;7.07;1.92;;;23.10;59.30;;;;;;4889493;29;20045;-74
2023/06/04 09:22:02;;;;;;;7.75;2.95;;;23.10;59.30;;;;;;4889072;29;20219;-73
2023/06/04 09:24:39;;;;;;;6.97;3.35;;;23.40;58.70;;;;;;4889276;29;20044;-72
2023/06/04 09:27:19;;;;;;;4.03;2.53;;;23.40;58.40;;;;;;4888212;29;20029;-73
2023/06/04 09:29:56;;;;;;;4.65;2.00;;;23.50;58.20;;;;;;4888867;29;20134;-72
2023/06/04 09:32:30;;;;;;;5.70;2.78;;;23.60;58.10;;;;;;4888769;29;20398;-70
2023/06/04 09:35:15;;;;;;;7.57;5.07;;;23.60;57.60;;;;;;4888390;29;20107;-72
2023/06/04 09:37:42;;;;;;;4.43;2.25;;;23.70;57.80;;;;;;4889077;29;20063;-72
2023/06/04 09:40:09;;;;;;;6.53;2.17;;;23.80;57.60;;;;;;4888611;29;20049;-73
2023/06/04 09:42:57;;;;;;;4.88;2.03;;;23.90;56.90;;;;;;4872728;29;20032;-71
2023/06/04 09:45:34;;;;;;;;;;;24.00;56.60;;;;;;4889267;29;20036;-73
2023/06/04 09:48:00;;;;;;;4.95;2.03;;;24.00;56.30;;;;;;4887276;29;19907;-73
2023/06/04 09:50:41;;;;;;;3.83;1.67;;;24.10;56.20;;;;;;4888981;29;20075;-73
2023/06/04 09:53:18;;;;;;;7.03;2.15;;;24.20;56.30;;;;;;4888100;29;20033;-75
2023/06/04 09:55:44;;;;;;;4.15;2.00;;;24.40;54.90;;;;;;4888670;29;20200;-75
2023/06/04 09:58:14;;;;;;;4.90;2.50;;;24.40;54.60;;;;;;4888042;29;20103;-75
2023/06/04 10:00:41;;;;;;;4.15;2.22;;;24.40;55.10;;;;;;4888927;29;20051;-73
2023/06/04 10:03:14;;;;;;;7.50;2.13;;;24.50;54.50;;;;;;4887833;29;20243;-73
2023/06/04 10:05:40;;;;;;;6.32;1.77;;;24.60;54.20;;;;;;4889158;29;20314;-73
2023/06/04 10:08:08;;;;;;;8.70;2.50;;;24.40;55.00;;;;;;4871585;29;20033;-73
2023/06/04 10:10:37;;;;;;;4.78;2.40;;;24.50;54.10;;;;;;4888457;29;20041;-71
2023/06/04 10:13:09;;;;;;;4.35;2.35;;;24.60;53.80;;;;;;4888007;29;20366;-72
2023/06/04 10:15:36;;;;;;;5.22;2.08;;;24.70;53.50;;;;;;4888775;29;20037;-73
2023/06/04 10:18:03;;;;;;;5.38;3.00;;;24.80;52.90;;;;;;4888168;29;20081;-74
2023/06/04 10:20:31;;;;;;;6.43;2.20;;;24.90;52.40;;;;;;4888586;29;20104;-74
2023/06/04 10:22:57;;;;;;;5.67;2.47;;;24.90;52.70;;;;;;4872327;29;20084;-74
2023/06/04 10:25:25;;;;;;;9.65;2.72;;;24.90;52.90;;;;;;4888179;29;20037;-72
2023/06/04 10:27:51;;;;;;;3.60;2.10;;;24.90;53.10;;;;;;4888823;29;20249;-73
2023/06/04 10:30:17;;;;;;;5.38;2.70;;;24.90;53.60;;;;;;4887910;29;20040;-74
2023/06/04 10:32:43;;;;;;;3.55;2.17;;;25.10;53.80;;;;;;4888401;29;20048;-73
2023/06/04 10:35:09;;;;;;;9.15;6.13;;;25.20;53.40;;;;;;4888107;29;20211;-73
2023/06/04 10:37:35;;;;;;;9.73;6.22;;;25.30;53.10;;;;;;4888636;29;20060;-72
2023/06/04 10:40:01;;;;;;;7.47;2.95;;;25.40;53.70;;;;;;4890791;29;20044;-73
2023/06/04 10:42:38;;;;;;;4.97;2.50;;;25.50;53.00;;;;;;4875253;29;20037;-73
2023/06/04 10:45:04;;;;;;;7.10;4.65;;;25.60;53.10;;;;;;4891297;29;20029;-74
2023/06/04 10:47:31;;;;;;;5.18;2.38;;;25.80;53.10;;;;;;4892171;29;20092;-74
2023/06/04 10:50:11;;;;;;;4.47;2.13;;;25.90;52.70;;;;;;4892102;29;20104;-73
2023/06/04 10:52:39;;;;;;;3.72;2.00;;;25.90;52.60;;;;;;4892033;29;20029;-72
2023/06/04 10:55:08;;;;;;;4.35;2.05;;;25.90;52.90;;;;;;4891129;29;20020;-73
2023/06/04 10:57:34;;;;;;;4.10;2.40;;;26.00;53.00;;;;;;4891887;29;20037;-74
2023/06/04 11:00:03;;;;;;;4.85;2.20;;;26.10;52.20;;;;;;4891433;29;20352;-73
2023/06/04 11:02:29;;;;;;;4.80;2.28;;;26.10;52.40;;;;;;4891187;29;20049;-73
2023/06/04 11:05:05;;;;;;;5.05;2.33;;;26.30;52.00;;;;;;4891568;29;20037;-74
2023/06/04 11:07:47;;;;;;;8.60;2.42;;;26.50;52.30;;;;;;4891584;29;20067;-75
2023/06/04 11:10:14;;;;;;;4.05;2.30;;;26.50;52.00;;;;;;4891156;29;20223;-74
2023/06/04 11:12:43;;;;;;;4.30;2.45;;;26.60;51.80;;;;;;4891491;29;20048;-72
2023/06/04 11:15:10;;;;;;;3.63;2.10;;;26.70;51.10;;;;;;4890844;29;20041;-72
2023/06/04 11:17:36;;;;;;;5.43;2.13;;;26.90;51.70;;;;;;4891568;29;20025;-73
2023/06/04 11:20:06;;;;;;;3.88;2.30;;;27.00;51.40;;;;;;4891225;29;20033;-72
2023/06/04 11:22:33;;;;;;;5.05;2.53;;;27.00;51.00;;;;;;4891632;29;20398;-72
2023/06/04 11:24:59;;;;;;;7.60;2.65;;;27.30;51.00;;;;;;4874921;29;20028;-73
2023/06/04 11:27:25;;;;;;;3.83;1.98;;;27.70;50.00;;;;;;4858660;29;20042;-74
2023/06/04 11:29:54;;;;;;;4.93;2.78;;;27.80;49.80;;;;;;4891267;29;20207;-73
2023/06/04 11:32:24;;;;;;;3.90;2.40;;;28.10;49.90;;;;;;4890558;29;20036;-74
2023/06/04 11:34:49;;;;;;;5.45;2.65;;;28.30;49.00;;;;;;4890912;29;20041;-75
2023/06/04 11:37:15;;;;;;;4.85;2.33;;;28.60;48.40;;;;;;4890710;29;20161;-76
2023/06/04 11:39:44;;;;;;;5.80;2.47;;;28.90;48.30;;;;;;4879977;29;20059;-74
2023/06/04 11:42:10;;;;;;;4.20;2.28;;;29.50;48.10;;;;;;4892178;29;20200;-72
2023/06/04 11:44:36;;;;;;;4.97;2.25;;;30.10;47.40;;;;;;4909794;29;20024;-73
2023/06/04 11:47:07;;;;;;;4.10;2.45;;;30.50;46.80;;;;;;4909760;29;20044;-72
2023/06/04 11:49:35;;;;;;;16.38;14.63;;;31.70;45.90;;;;;;4892818;29;20045;-72
2023/06/04 11:52:02;;;;;;;3.90;2.38;;;32.80;45.40;;;;;;4909649;29;20012;-73
2023/06/04 11:54:27;;;;;;;7.28;2.08;;;34.00;44.30;;;;;;4908934;29;20059;-74
2023/06/04 11:56:53;;;;;;;3.83;2.20;;;34.60;43.60;;;;;;4909706;29;20037;-72
2023/06/04 11:59:20;;;;;;;4.00;2.30;;;34.50;43.50;;;;;;4908783;29;20100;-73
2023/06/04 12:01:47;;;;;;;4.53;2.10;;;35.00;42.60;;;;;;4908715;29;20045;-72
2023/06/04 12:04:17;;;;;;;3.05;1.85;;;35.60;42.00;;;;;;4908623;29;20044;-74
2023/06/04 12:06:57;;;;;;;5.57;2.35;;;36.60;41.80;;;;;;4909095;29;20116;-74
2023/06/04 12:09:27;;;;;;;5.00;2.50;;;36.70;41.10;;;;;;4908536;29;20109;-74
2023/06/04 12:11:59;;;;;;;3.70;2.17;;;36.60;41.40;;;;;;4909335;29;20045;-74
2023/06/04 12:14:25;;;;;;;4.38;2.20;;;37.00;41.40;;;;;;4908745;29;20037;-73
2023/06/04 12:17:07;;;;;;;3.63;2.45;;;37.60;40.90;;;;;;4909210;29;20096;-74
2023/06/04 12:19:44;;;;;;;4.13;2.78;;;37.90;40.50;;;;;;4892430;29;20051;-75
2023/06/04 12:22:10;;;;;;;5.55;2.47;;;37.90;40.70;;;;;;4908283;29;20274;-73
2023/06/04 12:24:53;;;;;;;5.07;2.58;;;38.20;40.40;;;;;;4908785;29;20040;-75
2023/06/04 12:27:23;;;;;;;6.07;2.30;;;38.20;39.50;;;;;;4908459;29;20044;-75
2023/06/04 12:30:15;;;;;;;3.22;2.10;;;37.70;39.40;;;;;;4909092;29;20081;-73
2023/06/04 12:32:42;;;;;;;2.95;1.90;;;37.40;39.80;;;;;;4905736;29;20040;-74
2023/06/04 12:35:08;;;;;;;3.22;2.20;;;38.90;39.50;;;;;;4908103;29;20211;-74
2023/06/04 12:37:33;;;;;;;5.18;2.20;;;39.40;39.80;;;;;;4908577;29;20144;-74
2023/06/04 12:39:59;;;;;;;3.92;2.00;;;39.60;39.10;;;;;;4908802;29;20064;-74
2023/06/04 12:42:25;;;;;;;3.30;1.92;;;40.20;38.80;;;;;;4907908;29;20037;-74
2023/06/04 12:44:51;;;;;;;4.63;2.60;;;40.80;38.20;;;;;;4908531;29;20030;-72
2023/06/04 12:47:16;;;;;;;4.28;1.80;;;40.30;38.00;;;;;;4907925;29;20077;-76
2023/06/04 12:49:42;;;;;;;5.32;2.35;;;40.30;37.70;;;;;;4908674;29;20028;-75
2023/06/04 12:52:08;;;;;;;3.65;2.40;;;40.70;38.20;;;;;;4907916;29;20032;-75
2023/06/04 12:54:34;;;;;;;3.47;2.20;;;40.20;39.00;;;;;;4891543;29;20140;-75
2023/06/04 12:57:00;;;;;;;4.75;2.40;;;40.70;38.30;;;;;;4908205;29;20213;-74
2023/06/04 12:59:26;;;;;;;4.80;2.55;;;41.20;37.80;;;;;;4907561;29;20067;-76
2023/06/04 13:01:53;;;;;;;2.90;2.17;;;41.30;37.40;;;;;;4907158;29;20051;-74
2023/06/04 13:04:19;;;;;;;5.50;3.00;;;41.70;37.60;;;;;;4907326;29;20191;-74
2023/06/04 13:06:47;;;;;;;5.10;2.72;;;41.50;36.90;;;;;;4908007;29;20047;-73
2023/06/04 13:09:13;;;;;;;5.53;2.40;;;40.60;37.30;;;;;;4907464;29;20167;-74
2023/06/04 13:11:42;;;;;;;5.40;2.22;;;41.10;37.10;;;;;;4907947;29;20028;-75
2023/06/04 13:14:09;;;;;;;4.18;2.40;;;40.30;37.20;;;;;;4907943;29;20080;-73
2023/06/04 13:16:35;;;;;;;3.22;1.98;;;40.30;37.80;;;;;;4908067;29;20067;-73
2023/06/04 13:19:02;;;;;;;3.30;2.10;;;41.10;36.80;;;;;;4907888;29;20234;-75
2023/06/04 13:21:28;;;;;;;3.20;2.10;;;41.20;36.30;;;;;;4907031;29;20103;-74
2023/06/04 13:23:54;;;;;;;2.70;2.00;;;42.00;36.50;;;;;;4907737;29;20028;-74
2023/06/04 13:26:20;;;;;;;3.30;2.20;;;42.40;36.50;;;;;;4907225;29;20088;-73
2023/06/04 13:28:46;;;;;;;3.67;2.15;;;;;;;;;;4907854;29;20025;-72
2023/06/04 13:31:12;;;;;;;3.45;2.38;;;44.00;35.70;;;;;;4906893;29;20029;-74
2023/06/04 13:33:38;;;;;;;4.45;2.22;;;43.90;35.60;;;;;;4907392;29;20031;-72
2023/06/04 13:36:05;;;;;;;3.37;2.23;;;43.50;35.40;;;;;;4907661;29;20044;-74
2023/06/04 13:38:32;;;;;;;3.80;2.30;;;43.60;36.20;;;;;;4907257;29;20329;-73
2023/06/04 13:40:57;;;;;;;4.60;2.00;;;43.80;35.50;;;;;;4907399;29;20048;-74
2023/06/04 13:43:23;;;;;;;2.88;2.08;;;44.30;35.50;;;;;;4906910;29;20059;-75
2023/06/04 13:45:49;;;;;;;3.38;2.22;;;44.60;35.90;;;;;;4907282;29;20032;-75
2023/06/04 13:48:15;;;;;;;2.88;2.20;;;45.20;35.10;;;;;;4906765;29;20226;-73
2023/06/04 13:50:41;;;;;;;3.72;2.20;;;44.40;34.70;;;;;;4891024;29;20051;-74
2023/06/04 13:53:08;;;;;;;4.27;2.20;;;44.00;34.80;;;;;;4907264;29;20043;-74
2023/06/04 13:55:34;;;;;;;;;;;43.90;34.90;;;;;;4907449;29;20421;-73
2023/06/04 13:58:00;;;;;;;4.20;2.20;;;44.00;35.20;;;;;;4907321;29;20075;-74
2023/06/04 14:00:25;;;;;;;4.93;2.30;;;44.10;34.30;;;;;;4906680;29;20272;-75
2023/06/04 14:02:52;;;;;;;3.15;2.35;;;45.00;34.50;;;;;;4906845;29;20056;-75
2023/06/04 14:05:18;;;;;;;3.65;2.03;;;45.60;33.50;;;;;;4906790;29;20138;-75
2023/06/04 14:07:44;;;;;;;3.90;2.30;;;45.40;33.60;;;;;;4890764;29;20382;-76
2023/06/04 14:10:13;;;;;;;5.88;2.45;;;46.00;33.30;;;;;;4907060;29;20041;-75
2023/06/04 14:12:43;;;;;;;3.78;2.10;;;46.20;33.00;;;;;;4907413;29;20053;-74
2023/06/04 14:15:11;;;;;;;3.38;2.33;;;46.40;33.40;;;;;;4910572;29;20032;-76
2023/06/04 14:17:38;;;;;;;9.00;2.97;;;46.00;33.70;;;;;;4910570;29;20028;-74
2023/06/04 14:20:08;;;;;;;3.05;1.77;;;45.30;34.00;;;;;;4911095;29;20039;-73
2023/06/04 14:22:37;;;;;;;3.70;1.65;;;45.10;33.90;;;;;;4910587;29;20060;-74
2023/06/04 14:25:05;;;;;;;2.47;1.95;;;44.60;34.00;;;;;;4911096;29;20028;-74
2023/06/04 14:27:31;;;;;;;4.50;2.20;;;44.00;33.70;;;;;;4910215;29;20050;-73
2023/06/04 14:29:57;;;;;;;5.10;2.20;;;44.50;34.40;;;;;;4911063;29;20040;-75
2023/06/04 14:32:23;;;;;;;3.03;2.00;;;45.00;34.10;;;;;;4910501;29;20481;-74
2023/06/04 14:34:49;;;;;;;3.35;2.05;;;45.40;33.90;;;;;;4910816;29;20028;-74
2023/06/04 14:37:15;;;;;;;3.17;2.15;;;44.40;34.10;;;;;;4910294;29;20033;-73
2023/06/04 14:39:40;;;;;;;2.97;2.05;;;43.80;33.60;;;;;;4910808;29;20040;-74
2023/06/04 14:42:06;;;;;;;2.53;1.92;;;44.10;34.10;;;;;;4910732;29;20040;-74
2023/06/04 14:44:32;;;;;;;3.42;2.35;;;45.50;34.10;;;;;;4909307;29;20076;-73
2023/06/04 14:46:58;;;;;;;4.67;2.50;;;45.60;32.70;;;;;;4910725;29;20345;-72
2023/06/04 14:49:24;;;;;;;;;;;43.70;33.40;;;;;;4910718;29;20041;-73
2023/06/04 14:51:50;;;;;;;4.17;2.43;;;44.00;33.80;;;;;;4910748;29;20197;-72
2023/06/04 14:54:16;;;;;;;2.83;2.22;;;42.90;34.10;;;;;;4909915;29;20333;-74
2023/06/04 14:56:41;;;;;;;3.08;2.22;;;42.30;34.40;;;;;;4910707;29;20028;-73
2023/06/04 14:59:11;;;;;;;3.08;2.40;;;43.00;34.00;;;;;;4910725;29;20075;-72
2023/06/04 15:01:41;;;;;;;4.72;2.38;;;44.20;33.90;;;;;;4909304;29;20067;-75
2023/06/04 15:04:07;;;;;;;3.55;2.28;;;44.30;33.50;;;;;;4910335;29;20322;-74
2023/06/04 15:06:33;;;;;;;3.20;2.00;;;45.10;33.60;;;;;;4893153;29;20085;-71
2023/06/04 15:08:58;;;;;;;4.20;2.20;;;45.70;33.60;;;;;;4910408;29;20230;-74
2023/06/04 15:11:25;;;;;;;3.53;2.42;;;45.60;33.30;;;;;;4909562;29;20040;-74
2023/06/04 15:13:53;;;;;;;3.50;1.80;;;45.40;34.20;;;;;;4910358;29;20072;-73
2023/06/04 15:16:20;;;;;;;3.70;1.95;;;45.60;33.20;;;;;;4909445;29;20099;-72
2023/06/04 15:18:46;;;;;;;2.97;1.90;;;45.40;33.10;;;;;;4910025;29;20044;-73
2023/06/04 15:21:11;;;;;;;3.30;2.20;;;44.90;33.30;;;;;;4910343;29;20043;-73
2023/06/04 15:23:37;;;;;;;3.55;2.35;;;44.90;33.00;;;;;;4909240;29;20107;-72
2023/06/04 15:26:03;;;;;;;4.75;2.03;;;44.70;33.20;;;;;;4909424;29;20029;-73
2023/06/04 15:28:29;;;;;;;2.53;1.98;;;44.80;33.40;;;;;;4909024;29;20028;-73
2023/06/04 15:30:54;;;;;;;3.67;1.88;;;44.90;33.30;;;;;;4892815;29;20044;-75
2023/06/04 15:33:20;;;;;;;3.35;1.80;;;45.30;33.20;;;;;;4892581;29;20024;-72
2023/06/04 15:35:46;;;;;;;3.10;2.05;;;45.10;33.30;;;;;;4909709;29;20219;-73
2023/06/04 15:38:12;;;;;;;3.10;2.20;;;45.60;32.80;;;;;;4909985;29;20028;-74
2023/06/04 15:40:37;;;;;;;3.45;2.25;;;46.00;33.20;;;;;;4909425;29;20597;-73
2023/06/04 15:43:03;;;;;;;5.47;2.67;;;46.00;32.40;;;;;;4909728;29;20037;-74
2023/06/04 15:45:29;;;;;;;4.03;2.07;;;45.80;32.70;;;;;;4909274;29;20036;-74
2023/06/04 15:47:55;;;;;;;3.03;2.00;;;45.90;32.50;;;;;;4909670;29;20046;-73
2023/06/04 15:50:20;;;;;;;2.80;2.10;;;45.90;32.80;;;;;;4909093;29;20029;-72
2023/06/04 15:52:47;;;;;;;4.38;2.20;;;45.30;33.10;;;;;;4909659;29;20040;-74
2023/06/04 15:55:14;;;;;;;5.15;1.85;;;45.60;32.90;;;;;;4909553;29;20199;-74
2023/06/04 15:57:40;;;;;;;3.35;1.98;;;45.60;33.00;;;;;;4908765;29;20044;-73
2023/06/04 16:00:07;;;;;;;5.28;2.30;;;45.40;32.80;;;;;;4909358;29;20058;-73
2023/06/04 16:02:32;;;;;;;2.95;1.90;;;45.80;32.80;;;;;;4907500;29;20060;-74
2023/06/04 16:04:58;;;;;;;4.00;2.13;;;45.60;32.90;;;;;;4908869;29;20100;-74
2023/06/04 16:07:24;;;;;;;4.03;1.93;;;46.30;32.60;;;;;;4908547;29;20032;-74
2023/06/04 16:09:50;;;;;;;4.80;2.15;;;44.80;32.70;;;;;;4908735;29;20096;-72
2023/06/04 16:12:15;;;;;;;3.08;2.20;;;43.10;33.20;;;;;;4892554;29;20366;-72
2023/06/04 16:14:41;;;;;;;3.83;2.20;;;41.70;34.10;;;;;;4908731;29;20039;-73
2023/06/04 16:17:07;;;;;;;3.13;1.92;;;41.10;34.80;;;;;;4908862;29;20025;-74
2023/06/04 16:19:33;;;;;;;2.95;1.83;;;41.70;34.30;;;;;;4908428;29;20100;-73
2023/06/04 16:21:58;;;;;;;4.32;2.08;;;42.00;34.10;;;;;;4909133;29;20023;-73
2023/06/04 16:24:24;;;;;;;3.03;2.17;;;42.40;34.00;;;;;;4908619;29;20314;-73
2023/06/04 16:26:50;;;;;;;2.40;1.67;;;42.20;33.80;;;;;;4908852;29;20035;-73
2023/06/04 16:29:16;;;;;;;3.10;1.83;;;43.10;34.00;;;;;;4908692;29;20040;-73
2023/06/04 16:31:42;;;;;;;3.13;1.70;;;42.50;34.10;;;;;;4908220;29;20048;-74
2023/06/04 16:34:08;;;;;;;4.35;1.88;;;42.60;34.10;;;;;;4908960;29;20047;-73
2023/06/04 16:36:36;;;;;;;5.45;2.17;;;42.60;34.30;;;;;;4907630;29;20306;-73
2023/06/04 16:39:02;;;;;;;3.28;2.20;;;43.10;34.00;;;;;;4908638;29;20040;-73
2023/06/04 16:41:30;;;;;;;3.53;2.15;;;42.30;33.90;;;;;;4908227;29;20036;-74
2023/06/04 16:43:55;;;;;;;4.30;1.80;;;42.00;34.40;;;;;;4908788;29;20024;-74
2023/06/04 16:46:23;;;;;;;2.30;1.70;;;42.10;34.40;;;;;;4908492;29;20095;-73
2023/06/04 16:48:48;;;;;;;;;;;42.30;34.30;;;;;;4908865;29;20314;-73
2023/06/04 16:51:14;;;;;;;4.40;2.40;;;42.20;34.30;;;;;;4908403;29;19918;-74
2023/06/04 16:53:40;;;;;;;4.70;2.00;;;41.60;34.40;;;;;;4906985;29;20036;-75
2023/06/04 16:56:05;;;;;;;4.50;2.00;;;41.30;34.50;;;;;;4908537;29;20315;-74
2023/06/04 16:58:34;;;;;;;3.05;1.80;;;41.90;34.30;;;;;;4907885;29;20041;-73
2023/06/04 17:01:00;;;;;;;4.45;1.77;;;41.40;34.80;;;;;;4908598;29;20056;-73
2023/06/04 17:03:25;;;;;;;6.32;1.77;;;41.60;34.80;;;;;;4907252;29;20108;-73
2023/06/04 17:05:51;;;;;;;4.50;2.10;;;41.70;34.80;;;;;;4891666;29;20032;-74
2023/06/04 17:08:17;;;;;;;3.10;1.77;;;40.30;35.00;;;;;;4908229;29;20041;-72
2023/06/04 17:10:43;;;;;;;3.10;1.70;;;40.10;35.40;;;;;;4907686;29;20256;-72
2023/06/04 17:13:09;;;;;;;2.53;1.80;;;39.90;35.60;;;;;;4908307;29;20156;-73
2023/06/04 17:15:34;;;;;;;3.17;1.27;;;39.60;35.60;;;;;;4907674;29;20328;-71
2023/06/04 17:18:00;;;;;;;3.72;1.77;;;39.50;35.60;;;;;;4907887;29;20030;-73
2023/06/04 17:20:30;;;;;;;2.70;1.80;;;39.50;35.70;;;;;;4907569;29;20036;-73
2023/06/04 17:23:00;;;;;;;3.40;1.73;;;39.30;35.70;;;;;;4908144;29;20044;-74
2023/06/04 17:25:26;;;;;;;4.50;1.95;;;38.40;36.20;;;;;;4907162;29;20029;-73
2023/06/04 17:27:52;;;;;;;5.38;1.88;;;37.70;36.30;;;;;;4907775;29;20036;-73
2023/06/04 17:30:19;;;;;;;4.93;2.00;;;37.80;36.40;;;;;;4907663;29;20108;-72
2023/06/04 17:32:46;;;;;;;5.00;1.60;;;37.20;36.40;;;;;;4907297;29;20048;-74
2023/06/04 17:35:13;;;;;;;3.65;1.48;;;36.90;36.90;;;;;;4907901;29;20040;-73
2023/06/04 17:37:38;;;;;;;4.27;1.60;;;36.40;37.10;;;;;;4890713;29;20028;-74
2023/06/04 17:40:06;;;;;;;4.68;1.88;;;35.90;37.30;;;;;;4907561;29;20036;-74
2023/06/04 17:42:32;;;;;;;3.85;1.50;;;35.90;37.60;;;;;;4907017;29;20056;-74
2023/06/04 17:45:00;;;;;;;2.72;1.50;;;36.30;37.60;;;;;;4907525;29;20029;-75
2023/06/04 17:47:26;;;;;;;4.70;1.67;;;36.20;37.40;;;;;;4907213;29;20052;-74